sensor_id;sensor_type;location;lat;lon;timestamp;P1;durP1;ratioP1;P2;durP2;ratioP2
60896;SDS011;46749;32.932;-117.130;2022-07-29T00:00:58;0.50;;;0.30;;
60896;SDS011;46749;32.932;-117.130;2022-07-29T00:03:24;1.65;;;0.40;;
60896;SDS011;46749;32.932;-117.130;2022-07-29T00:05:50;1.70;;;0.40;;
60896;SDS011;46749;32.932;-117.130;2022-07-29T00:08:20;1.55;;;0.30;;
60896;SDS011;46749;32.932;-117.130;2022-07-29T00:10:46;0.52;;;0.40;;
60896;SDS011;46749;32.932;-117.130;2022-07-29T00:13:12;0.60;;;0.30;;
60896;SDS011;46749;32.932;-117.130;2022-07-29T00:15:39;3.20;;;0.75;;
60896;SDS011;46749;32.932;-117.130;2022-07-29T00:18:05;0.52;;;0.50;;
60896;SDS011;46749;32.932;-117.130;2022-07-29T00:20:31;0.60;;;0.30;;
60896;SDS011;46749;32.932;-117.130;2022-07-29T00:22:57;0.68;;;0.32;;
60896;SDS011;46749;32.932;-117.130;2022-07-29T00:25:24;0.60;;;0.45;;
60896;SDS011;46749;32.932;-117.130;2022-07-29T00:27:50;0.40;;;0.30;;
60896;SDS011;46749;32.932;-117.130;2022-07-29T00:30:16;1.70;;;0.38;;
60896;SDS011;46749;32.932;-117.130;2022-07-29T00:32:42;1.40;;;0.57;;
60896;SDS011;46749;32.932;-117.130;2022-07-29T00:35:08;0.70;;;0.40;;
60896;SDS011;46749;32.932;-117.130;2022-07-29T00:37:53;1.25;;;0.50;;
60896;SDS011;46749;32.932;-117.130;2022-07-29T00:40:19;0.98;;;0.43;;
60896;SDS011;46749;32.932;-117.130;2022-07-29T00:42:47;1.70;;;0.40;;
60896;SDS011;46749;32.932;-117.130;2022-07-29T00:45:15;0.63;;;0.40;;
60896;SDS011;46749;32.932;-117.130;2022-07-29T00:47:42;0.88;;;0.40;;
60896;SDS011;46749;32.932;-117.130;2022-07-29T00:50:09;0.80;;;0.50;;
60896;SDS011;46749;32.932;-117.130;2022-07-29T00:52:38;0.75;;;0.50;;
60896;SDS011;46749;32.932;-117.130;2022-07-29T00:55:06;1.83;;;0.60;;
60896;SDS011;46749;32.932;-117.130;2022-07-29T00:57:35;1.35;;;0.40;;
60896;SDS011;46749;32.932;-117.130;2022-07-29T01:00:06;1.73;;;0.45;;
60896;SDS011;46749;32.932;-117.130;2022-07-29T01:02:34;3.25;;;0.60;;
60896;SDS011;46749;32.932;-117.130;2022-07-29T01:05:02;1.65;;;0.50;;
60896;SDS011;46749;32.932;-117.130;2022-07-29T01:07:29;0.95;;;0.50;;
60896;SDS011;46749;32.932;-117.130;2022-07-29T01:09:57;2.58;;;0.57;;
60896;SDS011;46749;32.932;-117.130;2022-07-29T01:12:24;1.52;;;0.40;;
60896;SDS011;46749;32.932;-117.130;2022-07-29T01:14:52;1.15;;;0.55;;
60896;SDS011;46749;32.932;-117.130;2022-07-29T01:17:28;1.30;;;0.40;;
60896;SDS011;46749;32.932;-117.130;2022-07-29T01:20:01;1.65;;;0.40;;
60896;SDS011;46749;32.932;-117.130;2022-07-29T01:30:25;2.55;;;0.47;;
60896;SDS011;46749;32.932;-117.130;2022-07-29T01:32:54;2.35;;;0.50;;
60896;SDS011;46749;32.932;-117.130;2022-07-29T01:35:28;0.60;;;0.40;;
60896;SDS011;46749;32.932;-117.130;2022-07-29T01:38:12;0.95;;;0.47;;
60896;SDS011;46749;32.932;-117.130;2022-07-29T01:43:49;1.33;;;0.45;;
60896;SDS011;46749;32.932;-117.130;2022-07-29T01:46:24;1.70;;;0.60;;
60896;SDS011;46749;32.932;-117.130;2022-07-29T01:51:35;1.40;;;0.70;;
60896;SDS011;46749;32.932;-117.130;2022-07-29T01:54:15;1.13;;;0.60;;
60896;SDS011;46749;32.932;-117.130;2022-07-29T01:56:48;2.03;;;0.60;;
60896;SDS011;46749;32.932;-117.130;2022-07-29T01:59:17;1.58;;;0.40;;
60896;SDS011;46749;32.932;-117.130;2022-07-29T02:01:46;1.15;;;0.60;;
60896;SDS011;46749;32.932;-117.130;2022-07-29T02:04:14;1.38;;;0.60;;
60896;SDS011;46749;32.932;-117.130;2022-07-29T02:06:42;1.50;;;0.60;;
60896;SDS011;46749;32.932;-117.130;2022-07-29T02:09:10;1.33;;;0.57;;
60896;SDS011;46749;32.932;-117.130;2022-07-29T02:11:40;0.77;;;0.50;;
60896;SDS011;46749;32.932;-117.130;2022-07-29T02:14:21;1.40;;;0.60;;
60896;SDS011;46749;32.932;-117.130;2022-07-29T02:16:50;1.70;;;0.77;;
60896;SDS011;46749;32.932;-117.130;2022-07-29T02:19:19;5.85;;;0.60;;
60896;SDS011;46749;32.932;-117.130;2022-07-29T02:21:47;0.43;;;0.40;;
60896;SDS011;46749;32.932;-117.130;2022-07-29T02:24:14;1.60;;;0.45;;
60896;SDS011;46749;32.932;-117.130;2022-07-29T02:26:44;1.48;;;0.40;;
60896;SDS011;46749;32.932;-117.130;2022-07-29T02:29:11;1.10;;;0.50;;
60896;SDS011;46749;32.932;-117.130;2022-07-29T02:31:41;1.00;;;0.40;;
60896;SDS011;46749;32.932;-117.130;2022-07-29T02:34:12;1.73;;;0.50;;
60896;SDS011;46749;32.932;-117.130;2022-07-29T02:36:39;1.23;;;0.55;;
60896;SDS011;46749;32.932;-117.130;2022-07-29T02:39:08;1.63;;;0.40;;
60896;SDS011;46749;32.932;-117.130;2022-07-29T02:44:12;2.20;;;0.60;;
60896;SDS011;46749;32.932;-117.130;2022-07-29T02:46:46;1.38;;;0.40;;
60896;SDS011;46749;32.932;-117.130;2022-07-29T02:49:35;2.00;;;0.52;;
60896;SDS011;46749;32.932;-117.130;2022-07-29T02:52:03;0.98;;;0.43;;
60896;SDS011;46749;32.932;-117.130;2022-07-29T02:54:50;0.68;;;0.55;;
60896;SDS011;46749;32.932;-117.130;2022-07-29T02:57:21;0.77;;;0.40;;
60896;SDS011;46749;32.932;-117.130;2022-07-29T02:59:57;0.57;;;0.43;;
60896;SDS011;46749;32.932;-117.130;2022-07-29T03:02:29;1.10;;;0.43;;
60896;SDS011;46749;32.932;-117.130;2022-07-29T03:05:03;0.85;;;0.40;;
60896;SDS011;46749;32.932;-117.130;2022-07-29T03:07:32;2.00;;;0.57;;
60896;SDS011;46749;32.932;-117.130;2022-07-29T03:10:00;1.83;;;0.68;;
60896;SDS011;46749;32.932;-117.130;2022-07-29T03:12:27;1.17;;;0.30;;
60896;SDS011;46749;32.932;-117.130;2022-07-29T03:14:55;1.02;;;0.50;;
60896;SDS011;46749;32.932;-117.130;2022-07-29T03:17:22;1.25;;;0.43;;
60896;SDS011;46749;32.932;-117.130;2022-07-29T03:19:49;0.75;;;0.30;;
60896;SDS011;46749;32.932;-117.130;2022-07-29T03:22:15;0.77;;;0.50;;
60896;SDS011;46749;32.932;-117.130;2022-07-29T03:24:42;0.77;;;0.40;;
60896;SDS011;46749;32.932;-117.130;2022-07-29T03:27:08;1.13;;;0.35;;
60896;SDS011;46749;32.932;-117.130;2022-07-29T03:29:34;0.73;;;0.40;;
60896;SDS011;46749;32.932;-117.130;2022-07-29T03:32:04;1.25;;;0.35;;
60896;SDS011;46749;32.932;-117.130;2022-07-29T03:34:31;0.65;;;0.50;;
60896;SDS011;46749;32.932;-117.130;2022-07-29T03:36:57;1.40;;;0.50;;
60896;SDS011;46749;32.932;-117.130;2022-07-29T03:39:25;0.88;;;0.40;;
60896;SDS011;46749;32.932;-117.130;2022-07-29T03:41:55;0.50;;;0.40;;
60896;SDS011;46749;32.932;-117.130;2022-07-29T03:44:22;1.40;;;0.43;;
60896;SDS011;46749;32.932;-117.130;2022-07-29T03:46:50;0.65;;;0.45;;
60896;SDS011;46749;32.932;-117.130;2022-07-29T03:49:20;0.60;;;0.40;;
60896;SDS011;46749;32.932;-117.130;2022-07-29T03:51:49;0.30;;;0.30;;
60896;SDS011;46749;32.932;-117.130;2022-07-29T03:54:15;0.45;;;0.30;;
60896;SDS011;46749;32.932;-117.130;2022-07-29T03:56:42;0.93;;;0.35;;
60896;SDS011;46749;32.932;-117.130;2022-07-29T03:59:14;0.28;;;0.20;;
60896;SDS011;46749;32.932;-117.130;2022-07-29T04:01:44;1.50;;;0.40;;
60896;SDS011;46749;32.932;-117.130;2022-07-29T04:04:11;1.08;;;0.50;;
60896;SDS011;46749;32.932;-117.130;2022-07-29T04:06:39;0.82;;;0.32;;
60896;SDS011;46749;32.932;-117.130;2022-07-29T04:09:06;1.15;;;0.43;;
60896;SDS011;46749;32.932;-117.130;2022-07-29T04:11:33;1.15;;;0.45;;
60896;SDS011;46749;32.932;-117.130;2022-07-29T04:13:59;0.73;;;0.40;;
60896;SDS011;46749;32.932;-117.130;2022-07-29T04:16:26;0.68;;;0.32;;
60896;SDS011;46749;32.932;-117.130;2022-07-29T04:18:52;0.63;;;0.30;;
60896;SDS011;46749;32.932;-117.130;2022-07-29T04:21:18;0.40;;;0.30;;
60896;SDS011;46749;32.932;-117.130;2022-07-29T04:23:44;0.40;;;0.30;;
60896;SDS011;46749;32.932;-117.130;2022-07-29T04:26:14;0.35;;;0.30;;
60896;SDS011;46749;32.932;-117.130;2022-07-29T04:28:44;0.47;;;0.30;;
60896;SDS011;46749;32.932;-117.130;2022-07-29T04:31:11;0.47;;;0.30;;
60896;SDS011;46749;32.932;-117.130;2022-07-29T04:33:38;0.35;;;0.30;;
60896;SDS011;46749;32.932;-117.130;2022-07-29T04:36:05;0.50;;;0.25;;
60896;SDS011;46749;32.932;-117.130;2022-07-29T04:38:31;1.08;;;0.30;;
60896;SDS011;46749;32.932;-117.130;2022-07-29T04:40:57;1.35;;;0.30;;
60896;SDS011;46749;32.932;-117.130;2022-07-29T04:43:23;0.82;;;0.40;;
60896;SDS011;46749;32.932;-117.130;2022-07-29T04:45:49;0.32;;;0.30;;
60896;SDS011;46749;32.932;-117.130;2022-07-29T04:48:15;1.02;;;0.40;;
60896;SDS011;46749;32.932;-117.130;2022-07-29T04:50:41;0.57;;;0.30;;
60896;SDS011;46749;32.932;-117.130;2022-07-29T04:53:09;0.30;;;0.20;;
60896;SDS011;46749;32.932;-117.130;2022-07-29T04:55:35;0.88;;;0.40;;
60896;SDS011;46749;32.932;-117.130;2022-07-29T04:58:01;0.30;;;0.22;;
60896;SDS011;46749;32.932;-117.130;2022-07-29T05:00:27;0.57;;;0.30;;
60896;SDS011;46749;32.932;-117.130;2022-07-29T05:02:54;0.60;;;0.30;;
60896;SDS011;46749;32.932;-117.130;2022-07-29T05:05:20;0.77;;;0.22;;
60896;SDS011;46749;32.932;-117.130;2022-07-29T05:07:46;0.35;;;0.20;;
60896;SDS011;46749;32.932;-117.130;2022-07-29T05:10:12;0.32;;;0.30;;
60896;SDS011;46749;32.932;-117.130;2022-07-29T05:12:38;0.70;;;0.30;;
60896;SDS011;46749;32.932;-117.130;2022-07-29T05:15:04;0.35;;;0.30;;
60896;SDS011;46749;32.932;-117.130;2022-07-29T05:17:31;0.40;;;0.20;;
60896;SDS011;46749;32.932;-117.130;2022-07-29T05:19:57;0.88;;;0.30;;
60896;SDS011;46749;32.932;-117.130;2022-07-29T05:22:23;0.20;;;0.20;;
60896;SDS011;46749;32.932;-117.130;2022-07-29T05:24:49;0.43;;;0.30;;
60896;SDS011;46749;32.932;-117.130;2022-07-29T05:27:15;0.88;;;0.30;;
60896;SDS011;46749;32.932;-117.130;2022-07-29T05:29:42;0.38;;;0.20;;
60896;SDS011;46749;32.932;-117.130;2022-07-29T05:32:08;0.20;;;0.20;;
60896;SDS011;46749;32.932;-117.130;2022-07-29T05:34:34;0.20;;;0.20;;
60896;SDS011;46749;32.932;-117.130;2022-07-29T05:37:00;1.15;;;0.30;;
60896;SDS011;46749;32.932;-117.130;2022-07-29T05:39:26;0.30;;;0.30;;
60896;SDS011;46749;32.932;-117.130;2022-07-29T05:41:52;0.25;;;0.20;;
60896;SDS011;46749;32.932;-117.130;2022-07-29T05:44:18;0.20;;;0.20;;
60896;SDS011;46749;32.932;-117.130;2022-07-29T05:46:45;0.30;;;0.30;;
60896;SDS011;46749;32.932;-117.130;2022-07-29T05:49:11;0.40;;;0.20;;
60896;SDS011;46749;32.932;-117.130;2022-07-29T05:51:37;0.30;;;0.15;;
60896;SDS011;46749;32.932;-117.130;2022-07-29T05:54:03;0.20;;;0.20;;
60896;SDS011;46749;32.932;-117.130;2022-07-29T05:56:29;0.45;;;0.20;;
60896;SDS011;46749;32.932;-117.130;2022-07-29T05:58:55;0.25;;;0.25;;
60896;SDS011;46749;32.932;-117.130;2022-07-29T06:01:21;0.20;;;0.20;;
60896;SDS011;46749;32.932;-117.130;2022-07-29T06:03:47;0.52;;;0.25;;
60896;SDS011;46749;32.932;-117.130;2022-07-29T06:06:14;0.55;;;0.30;;
60896;SDS011;46749;32.932;-117.130;2022-07-29T06:08:40;0.20;;;0.20;;
60896;SDS011;46749;32.932;-117.130;2022-07-29T06:11:06;0.40;;;0.13;;
60896;SDS011;46749;32.932;-117.130;2022-07-29T06:13:33;0.22;;;0.10;;
60896;SDS011;46749;32.932;-117.130;2022-07-29T06:16:00;1.17;;;0.30;;
60896;SDS011;46749;32.932;-117.130;2022-07-29T06:18:26;0.20;;;0.20;;
60896;SDS011;46749;32.932;-117.130;2022-07-29T06:20:52;0.90;;;0.30;;
60896;SDS011;46749;32.932;-117.130;2022-07-29T06:23:19;0.20;;;0.20;;
60896;SDS011;46749;32.932;-117.130;2022-07-29T06:25:46;1.48;;;0.40;;
60896;SDS011;46749;32.932;-117.130;2022-07-29T06:28:13;0.52;;;0.22;;
60896;SDS011;46749;32.932;-117.130;2022-07-29T06:30:39;0.10;;;0.10;;
60896;SDS011;46749;32.932;-117.130;2022-07-29T06:33:05;0.20;;;0.17;;
60896;SDS011;46749;32.932;-117.130;2022-07-29T06:35:35;0.63;;;0.50;;
60896;SDS011;46749;32.932;-117.130;2022-07-29T06:38:02;0.20;;;0.20;;
60896;SDS011;46749;32.932;-117.130;2022-07-29T06:40:28;0.30;;;0.30;;
60896;SDS011;46749;32.932;-117.130;2022-07-29T06:43:13;1.27;;;0.30;;
60896;SDS011;46749;32.932;-117.130;2022-07-29T06:45:39;0.10;;;0.10;;
60896;SDS011;46749;32.932;-117.130;2022-07-29T06:48:06;0.70;;;0.20;;
60896;SDS011;46749;32.932;-117.130;2022-07-29T06:50:32;0.28;;;0.20;;
60896;SDS011;46749;32.932;-117.130;2022-07-29T06:52:59;0.20;;;0.20;;
60896;SDS011;46749;32.932;-117.130;2022-07-29T06:55:25;1.75;;;0.30;;
60896;SDS011;46749;32.932;-117.130;2022-07-29T06:57:51;0.47;;;0.20;;
60896;SDS011;46749;32.932;-117.130;2022-07-29T07:00:17;0.77;;;0.20;;
60896;SDS011;46749;32.932;-117.130;2022-07-29T07:02:43;0.10;;;0.10;;
60896;SDS011;46749;32.932;-117.130;2022-07-29T07:05:09;0.43;;;0.30;;
60896;SDS011;46749;32.932;-117.130;2022-07-29T07:07:35;0.20;;;0.20;;
60896;SDS011;46749;32.932;-117.130;2022-07-29T07:10:02;1.20;;;0.20;;
60896;SDS011;46749;32.932;-117.130;2022-07-29T07:12:28;0.22;;;0.22;;
60896;SDS011;46749;32.932;-117.130;2022-07-29T07:14:54;0.20;;;0.20;;
60896;SDS011;46749;32.932;-117.130;2022-07-29T07:17:20;0.20;;;0.20;;
60896;SDS011;46749;32.932;-117.130;2022-07-29T07:19:46;0.25;;;0.20;;
60896;SDS011;46749;32.932;-117.130;2022-07-29T07:22:12;0.82;;;0.20;;
60896;SDS011;46749;32.932;-117.130;2022-07-29T07:24:39;0.20;;;0.20;;
60896;SDS011;46749;32.932;-117.130;2022-07-29T07:27:05;0.47;;;0.22;;
60896;SDS011;46749;32.932;-117.130;2022-07-29T07:29:31;0.20;;;0.17;;
60896;SDS011;46749;32.932;-117.130;2022-07-29T07:31:57;0.20;;;0.20;;
60896;SDS011;46749;32.932;-117.130;2022-07-29T07:34:24;0.20;;;0.20;;
60896;SDS011;46749;32.932;-117.130;2022-07-29T07:36:50;0.20;;;0.17;;
60896;SDS011;46749;32.932;-117.130;2022-07-29T07:39:16;0.75;;;0.20;;
60896;SDS011;46749;32.932;-117.130;2022-07-29T07:41:42;0.93;;;0.20;;
60896;SDS011;46749;32.932;-117.130;2022-07-29T07:44:08;0.65;;;0.20;;
60896;SDS011;46749;32.932;-117.130;2022-07-29T07:46:34;0.10;;;0.10;;
60896;SDS011;46749;32.932;-117.130;2022-07-29T07:49:00;0.40;;;0.28;;
60896;SDS011;46749;32.932;-117.130;2022-07-29T07:51:26;0.20;;;0.20;;
60896;SDS011;46749;32.932;-117.130;2022-07-29T07:53:52;0.20;;;0.20;;
60896;SDS011;46749;32.932;-117.130;2022-07-29T07:56:19;0.20;;;0.20;;
60896;SDS011;46749;32.932;-117.130;2022-07-29T07:58:45;0.55;;;0.20;;
60896;SDS011;46749;32.932;-117.130;2022-07-29T08:01:11;0.30;;;0.20;;
60896;SDS011;46749;32.932;-117.130;2022-07-29T08:03:37;0.75;;;0.20;;
60896;SDS011;46749;32.932;-117.130;2022-07-29T08:06:04;0.70;;;0.20;;
60896;SDS011;46749;32.932;-117.130;2022-07-29T08:08:30;0.13;;;0.13;;
60896;SDS011;46749;32.932;-117.130;2022-07-29T08:10:57;0.10;;;0.10;;
60896;SDS011;46749;32.932;-117.130;2022-07-29T08:13:25;0.10;;;0.10;;
60896;SDS011;46749;32.932;-117.130;2022-07-29T08:15:55;0.20;;;0.20;;
60896;SDS011;46749;32.932;-117.130;2022-07-29T08:18:26;0.30;;;0.20;;
60896;SDS011;46749;32.932;-117.130;2022-07-29T08:20:54;0.30;;;0.20;;
60896;SDS011;46749;32.932;-117.130;2022-07-29T08:23:21;0.32;;;0.20;;
60896;SDS011;46749;32.932;-117.130;2022-07-29T08:25:52;0.25;;;0.20;;
60896;SDS011;46749;32.932;-117.130;2022-07-29T08:28:18;0.20;;;0.10;;
60896;SDS011;46749;32.932;-117.130;2022-07-29T08:30:44;0.13;;;0.10;;
60896;SDS011;46749;32.932;-117.130;2022-07-29T08:33:10;0.10;;;0.10;;
60896;SDS011;46749;32.932;-117.130;2022-07-29T08:35:36;0.20;;;0.20;;
60896;SDS011;46749;32.932;-117.130;2022-07-29T08:38:04;0.17;;;0.10;;
60896;SDS011;46749;32.932;-117.130;2022-07-29T08:40:31;0.20;;;0.20;;
60896;SDS011;46749;32.932;-117.130;2022-07-29T08:42:57;0.47;;;0.20;;
60896;SDS011;46749;32.932;-117.130;2022-07-29T08:45:23;0.22;;;0.20;;
60896;SDS011;46749;32.932;-117.130;2022-07-29T08:47:51;0.10;;;0.10;;
60896;SDS011;46749;32.932;-117.130;2022-07-29T08:50:18;0.65;;;0.22;;
60896;SDS011;46749;32.932;-117.130;2022-07-29T08:52:44;0.43;;;0.20;;
60896;SDS011;46749;32.932;-117.130;2022-07-29T08:55:12;0.20;;;0.20;;
60896;SDS011;46749;32.932;-117.130;2022-07-29T08:57:41;0.20;;;0.20;;
60896;SDS011;46749;32.932;-117.130;2022-07-29T09:00:08;0.77;;;0.20;;
60896;SDS011;46749;32.932;-117.130;2022-07-29T09:02:38;0.20;;;0.10;;
60896;SDS011;46749;32.932;-117.130;2022-07-29T09:05:07;0.28;;;0.20;;
60896;SDS011;46749;32.932;-117.130;2022-07-29T09:07:33;0.80;;;0.20;;
60896;SDS011;46749;32.932;-117.130;2022-07-29T09:09:59;0.22;;;0.20;;
60896;SDS011;46749;32.932;-117.130;2022-07-29T09:12:26;0.20;;;0.20;;
60896;SDS011;46749;32.932;-117.130;2022-07-29T09:14:54;0.35;;;0.20;;
60896;SDS011;46749;32.932;-117.130;2022-07-29T09:17:39;0.10;;;0.10;;
60896;SDS011;46749;32.932;-117.130;2022-07-29T09:20:13;0.20;;;0.20;;
60896;SDS011;46749;32.932;-117.130;2022-07-29T09:22:44;0.20;;;0.10;;
60896;SDS011;46749;32.932;-117.130;2022-07-29T09:25:34;0.20;;;0.20;;
60896;SDS011;46749;32.932;-117.130;2022-07-29T09:30:50;0.30;;;0.20;;
60896;SDS011;46749;32.932;-117.130;2022-07-29T09:33:17;0.20;;;0.20;;
60896;SDS011;46749;32.932;-117.130;2022-07-29T09:35:44;0.38;;;0.10;;
60896;SDS011;46749;32.932;-117.130;2022-07-29T09:38:13;0.28;;;0.20;;
60896;SDS011;46749;32.932;-117.130;2022-07-29T09:40:39;0.32;;;0.20;;
60896;SDS011;46749;32.932;-117.130;2022-07-29T09:43:09;0.22;;;0.20;;
60896;SDS011;46749;32.932;-117.130;2022-07-29T09:45:37;0.10;;;0.10;;
60896;SDS011;46749;32.932;-117.130;2022-07-29T09:48:17;0.10;;;0.10;;
60896;SDS011;46749;32.932;-117.130;2022-07-29T09:50:45;0.10;;;0.10;;
60896;SDS011;46749;32.932;-117.130;2022-07-29T09:53:30;0.13;;;0.10;;
60896;SDS011;46749;32.932;-117.130;2022-07-29T09:55:57;0.30;;;0.10;;
60896;SDS011;46749;32.932;-117.130;2022-07-29T09:58:24;0.10;;;0.10;;
60896;SDS011;46749;32.932;-117.130;2022-07-29T10:00:51;0.10;;;0.10;;
60896;SDS011;46749;32.932;-117.130;2022-07-29T10:03:18;0.20;;;0.10;;
60896;SDS011;46749;32.932;-117.130;2022-07-29T10:05:45;0.10;;;0.10;;
60896;SDS011;46749;32.932;-117.130;2022-07-29T10:08:12;0.13;;;0.13;;
60896;SDS011;46749;32.932;-117.130;2022-07-29T10:10:42;0.20;;;0.10;;
60896;SDS011;46749;32.932;-117.130;2022-07-29T10:13:09;0.20;;;0.20;;
60896;SDS011;46749;32.932;-117.130;2022-07-29T10:15:39;0.75;;;0.20;;
60896;SDS011;46749;32.932;-117.130;2022-07-29T10:18:08;0.30;;;0.10;;
60896;SDS011;46749;32.932;-117.130;2022-07-29T10:20:35;0.45;;;0.20;;
60896;SDS011;46749;32.932;-117.130;2022-07-29T10:23:03;0.10;;;0.10;;
60896;SDS011;46749;32.932;-117.130;2022-07-29T10:25:29;0.15;;;0.15;;
60896;SDS011;46749;32.932;-117.130;2022-07-29T10:27:56;0.13;;;0.10;;
60896;SDS011;46749;32.932;-117.130;2022-07-29T10:30:23;0.40;;;0.10;;
60896;SDS011;46749;32.932;-117.130;2022-07-29T10:38:42;0.17;;;0.17;;
60896;SDS011;46749;32.932;-117.130;2022-07-29T10:44:06;0.13;;;0.13;;
60896;SDS011;46749;32.932;-117.130;2022-07-29T10:46:39;0.20;;;0.13;;
60896;SDS011;46749;32.932;-117.130;2022-07-29T10:59:47;0.20;;;0.10;;
60896;SDS011;46749;32.932;-117.130;2022-07-29T11:05:00;0.20;;;0.17;;
60896;SDS011;46749;32.932;-117.130;2022-07-29T11:07:28;0.25;;;0.10;;
60896;SDS011;46749;32.932;-117.130;2022-07-29T11:10:19;0.35;;;0.20;;
60896;SDS011;46749;32.932;-117.130;2022-07-29T11:12:46;0.10;;;0.08;;
60896;SDS011;46749;32.932;-117.130;2022-07-29T11:15:20;0.20;;;0.10;;
60896;SDS011;46749;32.932;-117.130;2022-07-29T11:20:42;0.10;;;0.10;;
60896;SDS011;46749;32.932;-117.130;2022-07-29T11:28:39;0.00;;;0.00;;
60896;SDS011;46749;32.932;-117.130;2022-07-29T11:31:14;0.20;;;0.13;;
60896;SDS011;46749;32.932;-117.130;2022-07-29T11:33:44;0.10;;;0.10;;
60896;SDS011;46749;32.932;-117.130;2022-07-29T11:36:11;0.22;;;0.20;;
60896;SDS011;46749;32.932;-117.130;2022-07-29T11:38:39;0.20;;;0.10;;
60896;SDS011;46749;32.932;-117.130;2022-07-29T11:41:19;0.80;;;0.20;;
60896;SDS011;46749;32.932;-117.130;2022-07-29T11:43:51;0.10;;;0.10;;
60896;SDS011;46749;32.932;-117.130;2022-07-29T11:46:42;0.20;;;0.13;;
60896;SDS011;46749;32.932;-117.130;2022-07-29T11:49:09;0.20;;;0.10;;
60896;SDS011;46749;32.932;-117.130;2022-07-29T11:51:37;0.95;;;0.20;;
60896;SDS011;46749;32.932;-117.130;2022-07-29T11:54:04;0.32;;;0.25;;
60896;SDS011;46749;32.932;-117.130;2022-07-29T11:56:31;0.20;;;0.10;;
60896;SDS011;46749;32.932;-117.130;2022-07-29T11:59:04;0.10;;;0.10;;
60896;SDS011;46749;32.932;-117.130;2022-07-29T12:01:32;0.35;;;0.10;;
60896;SDS011;46749;32.932;-117.130;2022-07-29T12:04:05;0.10;;;0.10;;
60896;SDS011;46749;32.932;-117.130;2022-07-29T12:06:35;0.10;;;0.10;;
60896;SDS011;46749;32.932;-117.130;2022-07-29T12:09:06;0.08;;;0.08;;
60896;SDS011;46749;32.932;-117.130;2022-07-29T12:11:33;0.10;;;0.10;;
60896;SDS011;46749;32.932;-117.130;2022-07-29T12:13:59;0.28;;;0.10;;
60896;SDS011;46749;32.932;-117.130;2022-07-29T12:16:35;0.20;;;0.10;;
60896;SDS011;46749;32.932;-117.130;2022-07-29T12:19:03;0.32;;;0.20;;
60896;SDS011;46749;32.932;-117.130;2022-07-29T12:24:15;1.20;;;0.10;;
60896;SDS011;46749;32.932;-117.130;2022-07-29T12:26:55;0.20;;;0.20;;
60896;SDS011;46749;32.932;-117.130;2022-07-29T12:29:23;0.10;;;0.10;;
60896;SDS011;46749;32.932;-117.130;2022-07-29T12:31:52;0.22;;;0.10;;
60896;SDS011;46749;32.932;-117.130;2022-07-29T12:34:20;0.10;;;0.10;;
60896;SDS011;46749;32.932;-117.130;2022-07-29T12:36:49;0.10;;;0.10;;
60896;SDS011;46749;32.932;-117.130;2022-07-29T12:39:16;0.20;;;0.10;;
60896;SDS011;46749;32.932;-117.130;2022-07-29T12:41:43;0.15;;;0.08;;
60896;SDS011;46749;32.932;-117.130;2022-07-29T12:44:09;0.10;;;0.10;;
60896;SDS011;46749;32.932;-117.130;2022-07-29T12:46:35;0.10;;;0.10;;
60896;SDS011;46749;32.932;-117.130;2022-07-29T12:49:02;0.10;;;0.10;;
60896;SDS011;46749;32.932;-117.130;2022-07-29T12:51:33;0.20;;;0.20;;
60896;SDS011;46749;32.932;-117.130;2022-07-29T12:54:08;0.10;;;0.10;;
60896;SDS011;46749;32.932;-117.130;2022-07-29T12:56:37;0.38;;;0.15;;
60896;SDS011;46749;32.932;-117.130;2022-07-29T12:59:17;0.10;;;0.10;;
60896;SDS011;46749;32.932;-117.130;2022-07-29T13:01:45;0.00;;;0.00;;
60896;SDS011;46749;32.932;-117.130;2022-07-29T13:07:05;0.10;;;0.10;;
60896;SDS011;46749;32.932;-117.130;2022-07-29T13:09:36;0.10;;;0.10;;
60896;SDS011;46749;32.932;-117.130;2022-07-29T13:12:10;0.10;;;0.05;;
60896;SDS011;46749;32.932;-117.130;2022-07-29T13:14:42;0.30;;;0.17;;
60896;SDS011;46749;32.932;-117.130;2022-07-29T13:17:19;0.10;;;0.10;;
60896;SDS011;46749;32.932;-117.130;2022-07-29T13:19:48;0.15;;;0.10;;
60896;SDS011;46749;32.932;-117.130;2022-07-29T13:22:29;0.10;;;0.10;;
60896;SDS011;46749;32.932;-117.130;2022-07-29T13:24:57;0.10;;;0.10;;
60896;SDS011;46749;32.932;-117.130;2022-07-29T13:27:25;0.10;;;0.10;;
60896;SDS011;46749;32.932;-117.130;2022-07-29T13:29:53;0.55;;;0.17;;
60896;SDS011;46749;32.932;-117.130;2022-07-29T13:32:22;0.10;;;0.10;;
60896;SDS011;46749;32.932;-117.130;2022-07-29T13:34:50;0.30;;;0.10;;
60896;SDS011;46749;32.932;-117.130;2022-07-29T13:37:17;0.13;;;0.10;;
60896;SDS011;46749;32.932;-117.130;2022-07-29T13:39:43;0.10;;;0.10;;
60896;SDS011;46749;32.932;-117.130;2022-07-29T13:42:10;0.20;;;0.10;;
60896;SDS011;46749;32.932;-117.130;2022-07-29T13:44:40;0.20;;;0.17;;
60896;SDS011;46749;32.932;-117.130;2022-07-29T13:47:07;0.10;;;0.10;;
60896;SDS011;46749;32.932;-117.130;2022-07-29T13:49:33;0.15;;;0.13;;
60896;SDS011;46749;32.932;-117.130;2022-07-29T13:52:00;0.25;;;0.20;;
60896;SDS011;46749;32.932;-117.130;2022-07-29T13:54:27;0.10;;;0.10;;
60896;SDS011;46749;32.932;-117.130;2022-07-29T13:56:53;0.43;;;0.10;;
60896;SDS011;46749;32.932;-117.130;2022-07-29T13:59:19;0.10;;;0.10;;
60896;SDS011;46749;32.932;-117.130;2022-07-29T14:01:45;0.10;;;0.10;;
60896;SDS011;46749;32.932;-117.130;2022-07-29T14:04:11;0.08;;;0.08;;
60896;SDS011;46749;32.932;-117.130;2022-07-29T14:06:37;0.20;;;0.20;;
60896;SDS011;46749;32.932;-117.130;2022-07-29T14:09:03;0.20;;;0.13;;
60896;SDS011;46749;32.932;-117.130;2022-07-29T14:11:36;0.10;;;0.10;;
60896;SDS011;46749;32.932;-117.130;2022-07-29T14:14:03;0.10;;;0.10;;
60896;SDS011;46749;32.932;-117.130;2022-07-29T14:16:30;0.10;;;0.10;;
60896;SDS011;46749;32.932;-117.130;2022-07-29T14:18:56;0.20;;;0.10;;
60896;SDS011;46749;32.932;-117.130;2022-07-29T14:21:22;0.13;;;0.10;;
60896;SDS011;46749;32.932;-117.130;2022-07-29T14:23:48;0.10;;;0.10;;
60896;SDS011;46749;32.932;-117.130;2022-07-29T14:26:15;0.10;;;0.10;;
60896;SDS011;46749;32.932;-117.130;2022-07-29T14:28:41;0.10;;;0.10;;
60896;SDS011;46749;32.932;-117.130;2022-07-29T14:31:08;0.00;;;0.00;;
60896;SDS011;46749;32.932;-117.130;2022-07-29T14:33:34;0.35;;;0.13;;
60896;SDS011;46749;32.932;-117.130;2022-07-29T14:36:01;0.10;;;0.10;;
60896;SDS011;46749;32.932;-117.130;2022-07-29T14:38:27;0.10;;;0.10;;
60896;SDS011;46749;32.932;-117.130;2022-07-29T14:40:53;0.13;;;0.10;;
60896;SDS011;46749;32.932;-117.130;2022-07-29T14:43:20;0.00;;;0.00;;
60896;SDS011;46749;32.932;-117.130;2022-07-29T14:45:46;0.10;;;0.10;;
60896;SDS011;46749;32.932;-117.130;2022-07-29T14:48:12;0.30;;;0.10;;
60896;SDS011;46749;32.932;-117.130;2022-07-29T14:50:38;0.10;;;0.10;;
60896;SDS011;46749;32.932;-117.130;2022-07-29T14:53:04;0.10;;;0.10;;
60896;SDS011;46749;32.932;-117.130;2022-07-29T14:55:30;0.10;;;0.10;;
60896;SDS011;46749;32.932;-117.130;2022-07-29T14:57:56;0.10;;;0.10;;
60896;SDS011;46749;32.932;-117.130;2022-07-29T15:00:24;0.10;;;0.10;;
60896;SDS011;46749;32.932;-117.130;2022-07-29T15:02:50;0.10;;;0.10;;
60896;SDS011;46749;32.932;-117.130;2022-07-29T15:05:17;0.10;;;0.10;;
60896;SDS011;46749;32.932;-117.130;2022-07-29T15:07:43;0.10;;;0.10;;
60896;SDS011;46749;32.932;-117.130;2022-07-29T15:10:09;0.10;;;0.10;;